sensor_id;sensor_type;location;lat;lon;timestamp;pressure;altitude;pressure_sealevel;temperature;humidity
66381;BME280;53177;52.648;1.214;2023-03-26T00:01:45;100036.44;;;7.84;86.56
66381;BME280;53177;52.648;1.214;2023-03-26T00:04:14;100030.25;;;7.87;86.39
66381;BME280;53177;52.648;1.214;2023-03-26T00:06:44;100035.53;;;7.87;86.03
66381;BME280;53177;52.648;1.214;2023-03-26T00:09:14;100025.91;;;7.84;85.86
66381;BME280;53177;52.648;1.214;2023-03-26T00:11:41;100018.97;;;7.80;86.82
66381;BME280;53177;52.648;1.214;2023-03-26T00:14:07;100021.84;;;7.71;86.84
66381;BME280;53177;52.648;1.214;2023-03-26T00:16:34;100012.09;;;7.74;86.82
66381;BME280;53177;52.648;1.214;2023-03-26T00:19:00;100012.91;;;7.78;86.83
66381;BME280;53177;52.648;1.214;2023-03-26T00:21:27;100007.25;;;7.56;87.58
66381;BME280;53177;52.648;1.214;2023-03-26T00:23:58;99997.34;;;7.27;89.22
66381;BME280;53177;52.648;1.214;2023-03-26T00:26:25;99994.09;;;7.15;89.70
66381;BME280;53177;52.648;1.214;2023-03-26T00:28:51;100004.25;;;6.89;91.00
66381;BME280;53177;52.648;1.214;2023-03-26T00:31:17;99998.28;;;6.80;91.30
66381;BME280;53177;52.648;1.214;2023-03-26T00:33:43;99993.09;;;6.77;91.62
66381;BME280;53177;52.648;1.214;2023-03-26T00:36:13;99992.34;;;6.71;92.38
66381;BME280;53177;52.648;1.214;2023-03-26T00:38:41;99984.53;;;6.68;92.04
66381;BME280;53177;52.648;1.214;2023-03-26T00:41:08;99975.84;;;6.64;92.15
66381;BME280;53177;52.648;1.214;2023-03-26T00:43:45;99981.19;;;6.58;92.65
66381;BME280;53177;52.648;1.214;2023-03-26T00:46:11;99973.50;;;6.49;92.89
66381;BME280;53177;52.648;1.214;2023-03-26T00:48:36;99970.13;;;6.43;93.57
66381;BME280;53177;52.648;1.214;2023-03-26T00:51:04;99964.16;;;6.33;93.81
66381;BME280;53177;52.648;1.214;2023-03-26T00:53:30;99971.31;;;6.23;94.09
66381;BME280;53177;52.648;1.214;2023-03-26T00:55:56;99959.16;;;6.18;94.32
66381;BME280;53177;52.648;1.214;2023-03-26T00:58:25;99952.25;;;6.12;95.08
66381;BME280;53177;52.648;1.214;2023-03-26T01:00:56;99944.47;;;6.08;94.30
66381;BME280;53177;52.648;1.214;2023-03-26T01:03:24;99949.00;;;5.98;94.79
66381;BME280;53177;52.648;1.214;2023-03-26T01:05:52;99941.28;;;5.89;95.37
66381;BME280;53177;52.648;1.214;2023-03-26T01:08:32;99951.00;;;5.81;96.14
66381;BME280;53177;52.648;1.214;2023-03-26T01:11:02;99937.94;;;5.78;96.72
66381;BME280;53177;52.648;1.214;2023-03-26T01:13:34;99945.84;;;5.76;97.31
66381;BME280;53177;52.648;1.214;2023-03-26T01:16:00;99942.38;;;5.73;97.37
66381;BME280;53177;52.648;1.214;2023-03-26T01:18:28;99938.03;;;5.70;97.48
66381;BME280;53177;52.648;1.214;2023-03-26T01:20:59;99948.34;;;5.82;97.31
66381;BME280;53177;52.648;1.214;2023-03-26T01:23:59;99937.66;;;5.96;96.12
66381;BME280;53177;52.648;1.214;2023-03-26T01:29:03;99940.59;;;5.76;96.14
66381;BME280;53177;52.648;1.214;2023-03-26T01:31:41;99928.50;;;5.66;95.79
66381;BME280;53177;52.648;1.214;2023-03-26T01:34:14;99931.06;;;5.69;96.12
66381;BME280;53177;52.648;1.214;2023-03-26T01:39:47;99925.13;;;6.13;95.37
66381;BME280;53177;52.648;1.214;2023-03-26T01:42:40;99925.25;;;6.06;93.67
66381;BME280;53177;52.648;1.214;2023-03-26T01:45:16;99933.47;;;5.86;94.45
66381;BME280;53177;52.648;1.214;2023-03-26T01:47:45;99922.25;;;5.75;96.20
66381;BME280;53177;52.648;1.214;2023-03-26T01:50:11;99914.31;;;5.79;97.16
66381;BME280;53177;52.648;1.214;2023-03-26T01:52:37;99913.38;;;5.83;96.91
66381;BME280;53177;52.648;1.214;2023-03-26T01:55:02;99909.69;;;5.95;96.76
66381;BME280;53177;52.648;1.214;2023-03-26T01:57:36;99907.88;;;5.99;96.26
66381;BME280;53177;52.648;1.214;2023-03-26T02:00:26;99904.22;;;6.07;95.94
66381;BME280;53177;52.648;1.214;2023-03-26T02:08:45;99892.72;;;6.14;95.56
66381;BME280;53177;52.648;1.214;2023-03-26T02:11:15;99889.22;;;6.15;95.87
66381;BME280;53177;52.648;1.214;2023-03-26T02:13:42;99884.84;;;6.14;96.69
66381;BME280;53177;52.648;1.214;2023-03-26T02:16:11;99891.63;;;6.27;96.50
66381;BME280;53177;52.648;1.214;2023-03-26T02:18:44;99884.50;;;6.34;95.58
66381;BME280;53177;52.648;1.214;2023-03-26T02:23:38;99882.88;;;6.27;95.62
66381;BME280;53177;52.648;1.214;2023-03-26T02:26:06;99873.13;;;6.33;96.07
66381;BME280;53177;52.648;1.214;2023-03-26T02:28:32;99876.47;;;6.42;95.58
66381;BME280;53177;52.648;1.214;2023-03-26T02:30:57;99869.53;;;6.38;94.66
66381;BME280;53177;52.648;1.214;2023-03-26T02:33:27;99859.31;;;6.24;95.60
66381;BME280;53177;52.648;1.214;2023-03-26T02:35:52;99859.38;;;6.19;96.74
66381;BME280;53177;52.648;1.214;2023-03-26T02:38:18;99865.59;;;6.14;96.78
66381;BME280;53177;52.648;1.214;2023-03-26T02:40:43;99863.97;;;6.08;97.62
66381;BME280;53177;52.648;1.214;2023-03-26T02:43:09;99866.56;;;6.10;97.41
66381;BME280;53177;52.648;1.214;2023-03-26T02:45:34;99857.59;;;6.21;97.15
66381;BME280;53177;52.648;1.214;2023-03-26T02:47:59;99856.56;;;6.30;96.94
66381;BME280;53177;52.648;1.214;2023-03-26T02:50:26;99858.47;;;6.22;96.98
66381;BME280;53177;52.648;1.214;2023-03-26T02:52:52;99855.00;;;6.20;96.97
66381;BME280;53177;52.648;1.214;2023-03-26T02:55:18;99855.09;;;6.15;97.46
66381;BME280;53177;52.648;1.214;2023-03-26T02:57:43;99845.53;;;6.13;97.53
66381;BME280;53177;52.648;1.214;2023-03-26T03:00:09;99849.03;;;6.12;98.10
66381;BME280;53177;52.648;1.214;2023-03-26T03:02:41;99842.84;;;6.14;97.86
66381;BME280;53177;52.648;1.214;2023-03-26T03:05:09;99837.59;;;6.16;98.26
66381;BME280;53177;52.648;1.214;2023-03-26T03:07:34;99846.34;;;6.15;99.07
66381;BME280;53177;52.648;1.214;2023-03-26T03:10:02;99841.84;;;6.21;98.49
66381;BME280;53177;52.648;1.214;2023-03-26T03:12:28;99841.75;;;6.26;98.28
66381;BME280;53177;52.648;1.214;2023-03-26T03:14:53;99833.78;;;6.30;97.72
66381;BME280;53177;52.648;1.214;2023-03-26T03:17:18;99832.88;;;6.33;98.28
66381;BME280;53177;52.648;1.214;2023-03-26T03:19:45;99833.72;;;6.33;97.78
66381;BME280;53177;52.648;1.214;2023-03-26T03:22:11;99831.19;;;6.30;98.36
66381;BME280;53177;52.648;1.214;2023-03-26T03:24:36;99836.50;;;6.26;98.15
66381;BME280;53177;52.648;1.214;2023-03-26T03:27:03;99834.91;;;6.19;98.69
66381;BME280;53177;52.648;1.214;2023-03-26T03:29:28;99833.28;;;6.12;99.04
66381;BME280;53177;52.648;1.214;2023-03-26T03:31:54;99829.00;;;6.06;99.58
66381;BME280;53177;52.648;1.214;2023-03-26T03:34:19;99826.44;;;6.05;99.64
66381;BME280;53177;52.648;1.214;2023-03-26T03:36:46;99830.81;;;6.04;100.00
66381;BME280;53177;52.648;1.214;2023-03-26T03:39:13;99828.16;;;6.06;100.00
66381;BME280;53177;52.648;1.214;2023-03-26T03:41:38;99821.09;;;6.09;100.00
66381;BME280;53177;52.648;1.214;2023-03-26T03:44:04;99818.34;;;6.14;100.00
66381;BME280;53177;52.648;1.214;2023-03-26T03:46:30;99814.06;;;6.10;100.00
66381;BME280;53177;52.648;1.214;2023-03-26T03:48:55;99817.59;;;6.09;100.00
66381;BME280;53177;52.648;1.214;2023-03-26T03:51:21;99818.50;;;6.08;100.00
66381;BME280;53177;52.648;1.214;2023-03-26T03:53:46;99806.31;;;6.04;100.00
66381;BME280;53177;52.648;1.214;2023-03-26T03:56:12;99808.06;;;6.03;100.00
66381;BME280;53177;52.648;1.214;2023-03-26T03:58:39;99809.88;;;6.00;100.00
66381;BME280;53177;52.648;1.214;2023-03-26T04:01:05;99805.59;;;5.96;100.00
66381;BME280;53177;52.648;1.214;2023-03-26T04:03:30;99806.41;;;5.99;100.00
66381;BME280;53177;52.648;1.214;2023-03-26T04:06:03;99809.00;;;6.01;100.00
66381;BME280;53177;52.648;1.214;2023-03-26T04:08:31;99801.06;;;6.05;100.00
66381;BME280;53177;52.648;1.214;2023-03-26T04:10:57;99802.81;;;6.03;100.00
66381;BME280;53177;52.648;1.214;2023-03-26T04:13:22;99801.94;;;6.04;100.00
66381;BME280;53177;52.648;1.214;2023-03-26T04:15:47;99796.66;;;6.06;100.00
66381;BME280;53177;52.648;1.214;2023-03-26T04:18:13;99801.00;;;6.07;100.00
66381;BME280;53177;52.648;1.214;2023-03-26T04:20:41;99795.75;;;6.08;100.00
66381;BME280;53177;52.648;1.214;2023-03-26T04:23:12;99790.41;;;6.11;100.00
66381;BME280;53177;52.648;1.214;2023-03-26T04:25:42;99787.78;;;6.13;100.00
66381;BME280;53177;52.648;1.214;2023-03-26T04:28:41;99787.66;;;6.19;100.00
66381;BME280;53177;52.648;1.214;2023-03-26T04:31:09;99790.19;;;6.23;100.00
66381;BME280;53177;52.648;1.214;2023-03-26T04:33:36;99789.31;;;6.24;100.00
66381;BME280;53177;52.648;1.214;2023-03-26T04:36:03;99785.69;;;6.28;100.00
66381;BME280;53177;52.648;1.214;2023-03-26T04:38:32;99782.22;;;6.28;100.00
66381;BME280;53177;52.648;1.214;2023-03-26T04:41:00;99784.88;;;6.26;100.00
66381;BME280;53177;52.648;1.214;2023-03-26T04:43:25;99783.13;;;6.25;100.00
66381;BME280;53177;52.648;1.214;2023-03-26T04:45:52;99781.44;;;6.24;100.00
66381;BME280;53177;52.648;1.214;2023-03-26T04:48:17;99783.19;;;6.22;100.00
66381;BME280;53177;52.648;1.214;2023-03-26T04:50:45;99774.53;;;6.19;100.00
66381;BME280;53177;52.648;1.214;2023-03-26T04:53:16;99779.78;;;6.19;100.00
66381;BME280;53177;52.648;1.214;2023-03-26T04:56:08;99776.28;;;6.18;100.00
66381;BME280;53177;52.648;1.214;2023-03-26T04:58:37;99767.47;;;6.21;100.00
66381;BME280;53177;52.648;1.214;2023-03-26T05:01:04;99768.34;;;6.21;100.00
66381;BME280;53177;52.648;1.214;2023-03-26T05:03:29;99763.13;;;6.20;100.00
66381;BME280;53177;52.648;1.214;2023-03-26T05:05:58;99764.81;;;6.22;100.00
66381;BME280;53177;52.648;1.214;2023-03-26T05:08:25;99764.84;;;6.21;100.00
66381;BME280;53177;52.648;1.214;2023-03-26T05:10:53;99763.97;;;6.22;100.00
66381;BME280;53177;52.648;1.214;2023-03-26T05:13:20;99766.50;;;6.25;100.00
66381;BME280;53177;52.648;1.214;2023-03-26T05:15:45;99770.84;;;6.27;100.00
66381;BME280;53177;52.648;1.214;2023-03-26T05:18:12;99770.88;;;6.26;100.00
66381;BME280;53177;52.648;1.214;2023-03-26T05:20:42;99770.88;;;6.26;100.00
66381;BME280;53177;52.648;1.214;2023-03-26T05:23:10;99771.72;;;6.28;100.00
66381;BME280;53177;52.648;1.214;2023-03-26T05:25:37;99770.84;;;6.27;100.00
66381;BME280;53177;52.648;1.214;2023-03-26T05:28:07;99776.06;;;6.29;100.00
66381;BME280;53177;52.648;1.214;2023-03-26T05:30:38;99777.78;;;6.31;100.00
66381;BME280;53177;52.648;1.214;2023-03-26T05:33:05;99775.09;;;6.33;100.00
66381;BME280;53177;52.648;1.214;2023-03-26T05:35:32;99779.47;;;6.34;100.00
66381;BME280;53177;52.648;1.214;2023-03-26T05:37:59;99777.66;;;6.36;100.00
66381;BME280;53177;52.648;1.214;2023-03-26T05:40:26;99774.16;;;6.37;100.00
66381;BME280;53177;52.648;1.214;2023-03-26T05:42:51;99773.34;;;6.33;100.00
66381;BME280;53177;52.648;1.214;2023-03-26T05:45:16;99772.41;;;6.36;100.00
66381;BME280;53177;52.648;1.214;2023-03-26T05:47:42;99774.19;;;6.35;100.00
66381;BME280;53177;52.648;1.214;2023-03-26T05:50:09;99771.56;;;6.35;100.00
66381;BME280;53177;52.648;1.214;2023-03-26T05:52:35;99775.97;;;6.33;100.00
66381;BME280;53177;52.648;1.214;2023-03-26T05:55:00;99768.97;;;6.32;100.00
66381;BME280;53177;52.648;1.214;2023-03-26T05:57:29;99775.19;;;6.28;100.00
66381;BME280;53177;52.648;1.214;2023-03-26T05:59:54;99770.81;;;6.29;100.00
66381;BME280;53177;52.648;1.214;2023-03-26T06:02:20;99765.50;;;6.32;100.00
66381;BME280;53177;52.648;1.214;2023-03-26T06:04:46;99784.78;;;6.31;100.00
66381;BME280;53177;52.648;1.214;2023-03-26T06:07:11;99780.41;;;6.30;100.00
66381;BME280;53177;52.648;1.214;2023-03-26T06:09:40;99783.94;;;6.29;100.00
66381;BME280;53177;52.648;1.214;2023-03-26T06:12:06;99781.28;;;6.30;100.00
66381;BME280;53177;52.648;1.214;2023-03-26T06:14:32;99783.19;;;6.24;100.00
66381;BME280;53177;52.648;1.214;2023-03-26T06:16:58;99788.44;;;6.24;100.00
66381;BME280;53177;52.648;1.214;2023-03-26T06:19:23;99787.66;;;6.19;100.00
66381;BME280;53177;52.648;1.214;2023-03-26T06:21:49;99792.91;;;6.19;100.00
66381;BME280;53177;52.648;1.214;2023-03-26T06:24:14;99794.63;;;6.20;100.00
66381;BME280;53177;52.648;1.214;2023-03-26T06:26:41;99793.78;;;6.18;100.00
66381;BME280;53177;52.648;1.214;2023-03-26T06:29:06;99797.31;;;6.17;100.00
66381;BME280;53177;52.648;1.214;2023-03-26T06:31:32;99798.22;;;6.14;100.00
66381;BME280;53177;52.648;1.214;2023-03-26T06:33:57;99809.66;;;6.12;100.00
66381;BME280;53177;52.648;1.214;2023-03-26T06:36:23;99800.03;;;6.12;100.00
66381;BME280;53177;52.648;1.214;2023-03-26T06:38:48;99803.56;;;6.10;100.00
66381;BME280;53177;52.648;1.214;2023-03-26T06:41:13;99804.50;;;6.07;100.00
66381;BME280;53177;52.648;1.214;2023-03-26T06:43:39;99806.31;;;6.05;100.00
66381;BME280;53177;52.648;1.214;2023-03-26T06:46:04;99815.88;;;6.06;100.00
66381;BME280;53177;52.648;1.214;2023-03-26T06:48:30;99808.88;;;6.07;100.00
66381;BME280;53177;52.648;1.214;2023-03-26T06:50:56;99822.09;;;6.02;100.00
66381;BME280;53177;52.648;1.214;2023-03-26T06:53:21;99810.69;;;6.05;100.00
66381;BME280;53177;52.648;1.214;2023-03-26T06:55:47;99823.72;;;6.08;100.00
66381;BME280;53177;52.648;1.214;2023-03-26T06:58:12;99826.44;;;6.03;100.00
66381;BME280;53177;52.648;1.214;2023-03-26T07:00:38;99830.00;;;5.99;100.00
66381;BME280;53177;52.648;1.214;2023-03-26T07:03:04;99837.25;;;5.86;100.00
66381;BME280;53177;52.648;1.214;2023-03-26T07:05:30;99840.69;;;5.88;100.00
66381;BME280;53177;52.648;1.214;2023-03-26T07:07:56;99840.75;;;5.84;100.00
66381;BME280;53177;52.648;1.214;2023-03-26T07:10:22;99857.34;;;5.84;100.00
66381;BME280;53177;52.648;1.214;2023-03-26T07:12:48;99854.94;;;5.74;100.00
66381;BME280;53177;52.648;1.214;2023-03-26T07:15:13;99850.72;;;5.64;100.00
66381;BME280;53177;52.648;1.214;2023-03-26T07:17:38;99869.97;;;5.63;100.00
66381;BME280;53177;52.648;1.214;2023-03-26T07:20:05;99865.66;;;5.60;100.00
66381;BME280;53177;52.648;1.214;2023-03-26T07:22:31;99869.16;;;5.61;100.00
66381;BME280;53177;52.648;1.214;2023-03-26T07:24:57;99870.91;;;5.59;100.00
66381;BME280;53177;52.648;1.214;2023-03-26T07:27:35;99883.25;;;5.54;100.00
66381;BME280;53177;52.648;1.214;2023-03-26T07:38:11;99897.28;;;5.50;98.03
66381;BME280;53177;52.648;1.214;2023-03-26T07:41:00;99898.94;;;5.55;98.27
66381;BME280;53177;52.648;1.214;2023-03-26T07:46:10;99902.50;;;5.51;97.43
66381;BME280;53177;52.648;1.214;2023-03-26T07:48:44;99907.84;;;5.47;96.69
66381;BME280;53177;52.648;1.214;2023-03-26T07:51:14;99909.53;;;5.48;96.56
66381;BME280;53177;52.648;1.214;2023-03-26T07:53:39;99910.41;;;5.48;95.68
66381;BME280;53177;52.648;1.214;2023-03-26T07:57:00;99921.72;;;5.53;97.21
66381;BME280;53177;52.648;1.214;2023-03-26T07:59:18;99921.78;;;5.49;96.69
66381;BME280;53177;52.648;1.214;2023-03-26T08:18:28;99948.69;;;5.61;95.11
66381;BME280;53177;52.648;1.214;2023-03-26T08:20:59;99951.28;;;5.63;94.54
66381;BME280;53177;52.648;1.214;2023-03-26T08:23:34;99958.31;;;5.59;94.01
66381;BME280;53177;52.648;1.214;2023-03-26T08:31:47;99967.94;;;5.60;92.93
66381;BME280;53177;52.648;1.214;2023-03-26T08:34:13;99972.19;;;5.69;92.72
66381;BME280;53177;52.648;1.214;2023-03-26T08:36:39;99973.88;;;5.71;93.02
66381;BME280;53177;52.648;1.214;2023-03-26T08:39:05;99973.88;;;5.71;92.01
66381;BME280;53177;52.648;1.214;2023-03-26T08:50:35;99987.72;;;5.82;89.67
66381;BME280;53177;52.648;1.214;2023-03-26T08:53:23;100002.56;;;5.83;88.47
66381;BME280;53177;52.648;1.214;2023-03-26T08:58:46;100013.00;;;5.90;88.74
66381;BME280;53177;52.648;1.214;2023-03-26T09:12:43;100033.00;;;5.97;87.12
66381;BME280;53177;52.648;1.214;2023-03-26T09:15:34;100035.63;;;5.95;87.55
66381;BME280;53177;52.648;1.214;2023-03-26T09:26:44;100052.06;;;6.08;87.32
66381;BME280;53177;52.648;1.214;2023-03-26T09:32:27;100061.47;;;6.22;86.50
66381;BME280;53177;52.648;1.214;2023-03-26T09:35:31;100063.09;;;6.29;86.76
66381;BME280;53177;52.648;1.214;2023-03-26T09:53:13;100083.31;;;6.78;82.89
66381;BME280;53177;52.648;1.214;2023-03-26T09:55:56;100085.84;;;6.82;82.19
66381;BME280;53177;52.648;1.214;2023-03-26T09:58:39;100097.09;;;6.91;82.16
66381;BME280;53177;52.648;1.214;2023-03-26T10:03:41;100113.03;;;6.80;81.51
66381;BME280;53177;52.648;1.214;2023-03-26T10:06:27;100108.75;;;6.74;81.47
66381;BME280;53177;52.648;1.214;2023-03-26T10:09:05;100117.41;;;6.81;82.38
66381;BME280;53177;52.648;1.214;2023-03-26T10:19:44;100145.53;;;6.76;80.26
66381;BME280;53177;52.648;1.214;2023-03-26T10:22:23;100148.19;;;6.73;79.00
66381;BME280;53177;52.648;1.214;2023-03-26T10:31:05;100171.00;;;6.72;77.99
66381;BME280;53177;52.648;1.214;2023-03-26T10:33:38;100174.38;;;6.79;78.52
66381;BME280;53177;52.648;1.214;2023-03-26T10:36:23;100175.91;;;6.92;80.03
66381;BME280;53177;52.648;1.214;2023-03-26T10:44:32;100185.97;;;7.18;78.92
66381;BME280;53177;52.648;1.214;2023-03-26T10:50:19;100201.22;;;6.98;78.93
66381;BME280;53177;52.648;1.214;2023-03-26T10:52:53;100201.31;;;6.93;79.61
66381;BME280;53177;52.648;1.214;2023-03-26T10:58:11;100209.88;;;7.06;nan
66381;BME280;53177;52.648;1.214;2023-03-26T11:00:43;100217.44;;;7.22;79.29
66381;BME280;53177;52.648;1.214;2023-03-26T11:09:19;100230.59;;;7.22;75.56
66381;BME280;53177;52.648;1.214;2023-03-26T11:12:00;100241.94;;;7.24;75.46
66381;BME280;53177;52.648;1.214;2023-03-26T11:23:21;100260.66;;;7.08;73.71
66381;BME280;53177;52.648;1.214;2023-03-26T11:29:05;100273.63;;;7.18;73.45
66381;BME280;53177;52.648;1.214;2023-03-26T11:32:10;100277.09;;;7.20;73.29
66381;BME280;53177;52.648;1.214;2023-03-26T11:37:47;100289.50;;;7.11;73.26
66381;BME280;53177;52.648;1.214;2023-03-26T11:40:26;100292.78;;;7.25;72.43
66381;BME280;53177;52.648;1.214;2023-03-26T11:43:03;100298.97;;;7.24;71.46
66381;BME280;53177;52.648;1.214;2023-03-26T11:45:32;100307.69;;;7.24;72.11
66381;BME280;53177;52.648;1.214;2023-03-26T11:51:00;100323.53;;;7.21;69.95
66381;BME280;53177;52.648;1.214;2023-03-26T11:53:30;100326.31;;;7.12;70.22
66381;BME280;53177;52.648;1.214;2023-03-26T11:56:41;100325.53;;;7.06;69.09
66381;BME280;53177;52.648;1.214;2023-03-26T11:59:02;100335.13;;;7.07;69.67
66381;BME280;53177;52.648;1.214;2023-03-26T12:01:55;100345.81;;;6.96;68.55
66381;BME280;53177;52.648;1.214;2023-03-26T12:07:32;100354.47;;;7.03;70.31
66381;BME280;53177;52.648;1.214;2023-03-26T12:10:00;100357.78;;;7.17;71.52
66381;BME280;53177;52.648;1.214;2023-03-26T12:12:29;100365.50;;;7.29;71.66
66381;BME280;53177;52.648;1.214;2023-03-26T12:14:56;100365.53;;;7.26;69.50
66381;BME280;53177;52.648;1.214;2023-03-26T12:19:57;100371.78;;;7.20;67.98
66381;BME280;53177;52.648;1.214;2023-03-26T12:22:37;100386.63;;;7.21;67.15
66381;BME280;53177;52.648;1.214;2023-03-26T12:25:15;100376.81;;;7.32;67.96
66381;BME280;53177;52.648;1.214;2023-03-26T12:27:50;100383.00;;;7.30;67.22
66381;BME280;53177;52.648;1.214;2023-03-26T12:30:26;100384.66;;;7.35;68.24
66381;BME280;53177;52.648;1.214;2023-03-26T12:33:00;100392.50;;;7.42;67.54
66381;BME280;53177;52.648;1.214;2023-03-26T12:35:30;100404.97;;;7.27;68.17
66381;BME280;53177;52.648;1.214;2023-03-26T12:40:41;100418.44;;;7.03;67.89
66381;BME280;53177;52.648;1.214;2023-03-26T12:46:01;100435.81;;;7.13;67.91
66381;BME280;53177;52.648;1.214;2023-03-26T12:48:26;100427.94;;;7.16;68.32
66381;BME280;53177;52.648;1.214;2023-03-26T12:51:22;100437.66;;;7.08;66.86
66381;BME280;53177;52.648;1.214;2023-03-26T13:01:58;100442.72;;;7.81;63.42
66381;BME280;53177;52.648;1.214;2023-03-26T13:07:29;100457.00;;;7.65;61.93
66381;BME280;53177;52.648;1.214;2023-03-26T13:10:32;100461.16;;;7.80;60.48
66381;BME280;53177;52.648;1.214;2023-03-26T13:13:56;100459.78;;;7.56;59.95
66381;BME280;53177;52.648;1.214;2023-03-26T13:15:58;100463.59;;;7.92;61.70
66381;BME280;53177;52.648;1.214;2023-03-26T13:23:49;100479.47;;;7.89;61.45
66381;BME280;53177;52.648;1.214;2023-03-26T13:29:14;100481.97;;;7.97;62.71
66381;BME280;53177;52.648;1.214;2023-03-26T13:31:53;100488.47;;;7.76;62.48
66381;BME280;53177;52.648;1.214;2023-03-26T13:34:35;100487.59;;;7.75;64.89
66381;BME280;53177;52.648;1.214;2023-03-26T13:37:38;100497.72;;;7.98;63.93
66381;BME280;53177;52.648;1.214;2023-03-26T13:42:40;100508.91;;;7.54;66.95
66381;BME280;53177;52.648;1.214;2023-03-26T13:45:32;100509.09;;;7.42;68.36
66381;BME280;53177;52.648;1.214;2023-03-26T13:48:11;100518.75;;;7.40;69.38
66381;BME280;53177;52.648;1.214;2023-03-26T13:50:41;100528.44;;;7.38;67.46
66381;BME280;53177;52.648;1.214;2023-03-26T13:53:13;100525.69;;;7.47;67.43
66381;BME280;53177;52.648;1.214;2023-03-26T13:55:47;100525.72;;;7.44;67.20
66381;BME280;53177;52.648;1.214;2023-03-26T13:58:20;100532.59;;;7.57;68.26
66381;BME280;53177;52.648;1.214;2023-03-26T14:01:06;100544.91;;;7.54;67.08
66381;BME280;53177;52.648;1.214;2023-03-26T14:06:26;100548.94;;;7.12;65.86
66381;BME280;53177;52.648;1.214;2023-03-26T14:09:03;100549.84;;;7.06;64.61
66381;BME280;53177;52.648;1.214;2023-03-26T14:12:20;100548.13;;;7.04;67.61
66381;BME280;53177;52.648;1.214;2023-03-26T14:14:42;100557.34;;;7.40;66.80
66381;BME280;53177;52.648;1.214;2023-03-26T14:17:21;100569.44;;;7.56;66.53
66381;BME280;53177;52.648;1.214;2023-03-26T14:22:39;100564.34;;;7.42;66.37
66381;BME280;53177;52.648;1.214;2023-03-26T14:25:15;100580.97;;;7.44;65.92
66381;BME280;53177;52.648;1.214;2023-03-26T14:30:41;100585.31;;;7.50;65.60
66381;BME280;53177;52.648;1.214;2023-03-26T14:41:52;100602.91;;;7.45;62.88
66381;BME280;53177;52.648;1.214;2023-03-26T14:44:37;100620.38;;;7.47;63.19
66381;BME280;53177;52.648;1.214;2023-03-26T14:47:21;100631.00;;;7.40;63.21
66381;BME280;53177;52.648;1.214;2023-03-26T14:50:23;100623.09;;;7.40;61.68
66381;BME280;53177;52.648;1.214;2023-03-26T14:52:58;100632.63;;;7.53;60.91
66381;BME280;53177;52.648;1.214;2023-03-26T14:56:18;100631.75;;;7.52;58.95
66381;BME280;53177;52.648;1.214;2023-03-26T15:18:24;100691.56;;;7.32;62.78
66381;BME280;53177;52.648;1.214;2023-03-26T15:21:17;100690.28;;;6.82;66.84
66381;BME280;53177;52.648;1.214;2023-03-26T15:24:07;100691.19;;;6.77;68.35
66381;BME280;53177;52.648;1.214;2023-03-26T15:29:52;100698.13;;;6.89;67.71
66381;BME280;53177;52.648;1.214;2023-03-26T15:35:42;100703.34;;;6.93;68.11
66381;BME280;53177;52.648;1.214;2023-03-26T15:41:36;100716.38;;;7.08;66.93
66381;BME280;53177;52.648;1.214;2023-03-26T15:51:57;100736.72;;;6.83;67.25
66381;BME280;53177;52.648;1.214;2023-03-26T16:00:37;100752.56;;;6.71;68.98
66381;BME280;53177;52.648;1.214;2023-03-26T16:03:00;100749.00;;;6.81;69.43
66381;BME280;53177;52.648;1.214;2023-03-26T16:08:25;100758.69;;;6.73;70.25
66381;BME280;53177;52.648;1.214;2023-03-26T16:10:57;100768.28;;;6.83;72.00
66381;BME280;53177;52.648;1.214;2023-03-26T16:13:36;100771.75;;;6.84;73.51
66381;BME280;53177;52.648;1.214;2023-03-26T16:26:43;100783.44;;;6.30;75.25
66381;BME280;53177;52.648;1.214;2023-03-26T16:29:18;100794.88;;;6.15;75.54
66381;BME280;53177;52.648;1.214;2023-03-26T16:32:13;100800.13;;;6.17;74.82
66381;BME280;53177;52.648;1.214;2023-03-26T16:37:46;100818.50;;;6.15;74.12
66381;BME280;53177;52.648;1.214;2023-03-26T16:50:55;100842.13;;;6.14;68.89
66381;BME280;53177;52.648;1.214;2023-03-26T17:04:05;100868.34;;;6.26;66.62
66381;BME280;53177;52.648;1.214;2023-03-26T17:09:39;100878.84;;;6.35;66.41
66381;BME280;53177;52.648;1.214;2023-03-26T17:12:21;100894.63;;;6.23;65.53
66381;BME280;53177;52.648;1.214;2023-03-26T17:17:54;100908.66;;;6.16;65.07
66381;BME280;53177;52.648;1.214;2023-03-26T17:20:39;100903.41;;;6.16;65.11
66381;BME280;53177;52.648;1.214;2023-03-26T17:23:26;100918.25;;;6.14;65.44
66381;BME280;53177;52.648;1.214;2023-03-26T17:26:03;100928.78;;;6.09;65.68
66381;BME280;53177;52.648;1.214;2023-03-26T17:33:37;100945.41;;;5.96;66.84
66381;BME280;53177;52.648;1.214;2023-03-26T17:36:58;100946.28;;;5.87;67.70
66381;BME280;53177;52.648;1.214;2023-03-26T17:39:04;100951.53;;;5.87;68.43
66381;BME280;53177;52.648;1.214;2023-03-26T17:44:36;100959.41;;;5.86;68.75
66381;BME280;53177;52.648;1.214;2023-03-26T17:47:05;100957.69;;;5.86;69.27
66381;BME280;53177;52.648;1.214;2023-03-26T17:49:38;100970.78;;;5.88;69.13
66381;BME280;53177;52.648;1.214;2023-03-26T17:52:22;100979.53;;;5.92;69.28
66381;BME280;53177;52.648;1.214;2023-03-26T17:54:51;100984.78;;;5.96;69.32
66381;BME280;53177;52.648;1.214;2023-03-26T17:59:45;100988.28;;;5.91;69.76
66381;BME280;53177;52.648;1.214;2023-03-26T18:02:21;100995.28;;;5.92;69.20
66381;BME280;53177;52.648;1.214;2023-03-26T18:04:52;100996.16;;;5.95;70.30
66381;BME280;53177;52.648;1.214;2023-03-26T18:10:09;101004.91;;;5.90;69.85
66381;BME280;53177;52.648;1.214;2023-03-26T18:13:00;101007.50;;;5.88;69.72
66381;BME280;53177;52.648;1.214;2023-03-26T18:16:07;101010.09;;;5.85;70.17
66381;BME280;53177;52.648;1.214;2023-03-26T18:19:10;101015.41;;;5.86;69.30
66381;BME280;53177;52.648;1.214;2023-03-26T18:21:46;101013.66;;;5.88;70.19
66381;BME280;53177;52.648;1.214;2023-03-26T18:24:25;101026.78;;;5.87;70.48
66381;BME280;53177;52.648;1.214;2023-03-26T18:27:06;101039.00;;;5.83;70.54
66381;BME280;53177;52.648;1.214;2023-03-26T18:29:35;101049.47;;;5.85;71.08